createdAt,value
2017-11-06T00:00:25.487Z,1002.05
2017-11-06T00:01:25.411Z,1002.04
2017-11-06T00:02:25.386Z,1002.06
2017-11-06T00:03:25.373Z,1002.07
2017-11-06T00:04:25.358Z,1002.04
2017-11-06T00:05:25.336Z,1002.05
2017-11-06T00:06:25.383Z,1002.09
2017-11-06T00:07:25.303Z,1002.07
2017-11-06T00:08:25.289Z,1002.11
2017-11-06T00:09:25.270Z,1002.11
2017-11-06T00:10:25.256Z,1002.12
2017-11-06T00:11:25.235Z,1002.13
2017-11-06T00:12:25.381Z,1002.15
2017-11-06T00:13:25.200Z,1002.16
2017-11-06T00:14:25.183Z,1002.16
2017-11-06T00:15:25.160Z,1002.16
2017-11-06T00:16:25.155Z,1002.14
2017-11-06T00:17:25.130Z,1002.17
2017-11-06T00:18:25.171Z,1002.19
2017-11-06T00:19:25.094Z,1002.20
2017-11-06T00:20:25.094Z,1002.22
2017-11-06T00:21:25.063Z,1002.24
2017-11-06T00:22:25.045Z,1002.26
2017-11-06T00:23:25.032Z,1002.29
2017-11-06T00:24:25.061Z,1002.29
2017-11-06T00:25:24.997Z,1002.31
2017-11-06T00:26:24.977Z,1002.34
2017-11-06T00:27:24.963Z,1002.34
2017-11-06T00:28:24.937Z,1002.34
2017-11-06T00:29:24.926Z,1002.37
2017-11-06T00:30:24.975Z,1002.37
2017-11-06T00:31:24.891Z,1002.37
2017-11-06T00:32:24.872Z,1002.39
2017-11-06T00:33:24.854Z,1002.39
2017-11-06T00:34:24.843Z,1002.41
2017-11-06T00:35:24.821Z,1002.44
2017-11-06T00:36:24.949Z,1002.48
2017-11-06T00:37:24.786Z,1002.47
2017-11-06T00:38:24.768Z,1002.47
2017-11-06T00:39:24.770Z,1002.53
2017-11-06T00:40:24.737Z,1002.51
2017-11-06T00:41:24.719Z,1002.54
2017-11-06T00:42:24.757Z,1002.54
2017-11-06T00:43:24.682Z,1002.57
2017-11-06T00:44:24.667Z,1002.57
2017-11-06T00:45:24.652Z,1002.60
2017-11-06T00:46:24.631Z,1002.58
2017-11-06T00:47:24.615Z,1002.60
2017-11-06T00:48:24.735Z,1002.65
2017-11-06T00:49:24.583Z,1002.66
2017-11-06T00:50:24.570Z,1002.71
2017-11-06T00:51:24.548Z,1002.78
2017-11-06T00:52:24.543Z,1002.80
2017-11-06T00:53:24.512Z,1002.85
2017-11-06T00:54:24.639Z,1002.85
2017-11-06T00:55:24.480Z,1002.90
2017-11-06T00:56:24.486Z,1002.94
2017-11-06T00:57:24.445Z,1002.91
2017-11-06T00:58:24.437Z,1002.93
2017-11-06T00:59:24.408Z,1002.93
2017-11-06T01:00:24.531Z,1002.99
2017-11-06T01:01:24.376Z,1002.98
2017-11-06T01:02:24.367Z,1002.99
2017-11-06T01:03:24.341Z,1002.99
2017-11-06T01:04:24.326Z,1003.02
2017-11-06T01:05:24.304Z,1003.03
2017-11-06T01:06:24.605Z,1003.04
2017-11-06T01:07:24.268Z,1003.07
2017-11-06T01:08:24.257Z,1003.03
2017-11-06T01:09:24.250Z,1003.05
2017-11-06T01:10:24.226Z,1003.00
2017-11-06T01:11:24.205Z,1003.01
2017-11-06T01:12:24.543Z,1003.03
2017-11-06T01:13:24.171Z,1003.02
2017-11-06T01:14:24.153Z,1003.01
2017-11-06T01:15:24.127Z,1003.08
2017-11-06T01:16:24.107Z,1003.03
2017-11-06T01:17:24.094Z,1003.00
2017-11-06T01:18:24.442Z,1003.02
2017-11-06T01:19:24.068Z,1003.04
2017-11-06T01:20:24.055Z,1003.02
2017-11-06T01:21:24.032Z,1003.03
2017-11-06T01:22:24.017Z,1003.03
2017-11-06T01:23:23.985Z,1003.03
2017-11-06T01:24:24.006Z,1003.02
2017-11-06T01:25:23.971Z,1003.02
2017-11-06T01:26:23.950Z,1003.05
2017-11-06T01:27:23.922Z,1003.03
2017-11-06T01:28:23.897Z,1003.02
2017-11-06T01:29:23.951Z,1002.99
2017-11-06T01:30:23.879Z,1003.03
2017-11-06T01:31:23.873Z,1003.01
2017-11-06T01:32:23.831Z,1003.02
2017-11-06T01:33:23.821Z,1003.04
2017-11-06T01:34:23.793Z,1003.06
2017-11-06T01:35:23.923Z,1003.10
2017-11-06T01:36:23.770Z,1003.09
2017-11-06T01:37:23.748Z,1003.11
2017-11-06T01:38:23.728Z,1003.08
2017-11-06T01:39:23.719Z,1003.14
2017-11-06T01:40:23.688Z,1003.14
2017-11-06T01:41:23.731Z,1003.07
2017-11-06T01:42:23.671Z,1003.11
2017-11-06T01:43:23.643Z,1003.10
2017-11-06T01:44:23.628Z,1003.08
2017-11-06T01:45:23.599Z,1003.06
2017-11-06T01:46:23.584Z,1003.11
2017-11-06T01:47:23.728Z,1003.09
2017-11-06T01:48:23.556Z,1003.10
2017-11-06T01:49:23.531Z,1003.07
2017-11-06T01:50:23.523Z,1003.06
2017-11-06T01:51:23.509Z,1003.06
2017-11-06T01:52:23.492Z,1003.09
2017-11-06T01:53:23.597Z,1003.12
2017-11-06T01:54:23.443Z,1003.10
2017-11-06T01:55:23.424Z,1003.15
2017-11-06T01:56:23.415Z,1003.20
2017-11-06T01:57:23.403Z,1003.22
2017-11-06T01:58:23.377Z,1003.14
2017-11-06T01:59:23.503Z,1003.18
2017-11-06T02:00:23.337Z,1003.21
2017-11-06T02:01:23.336Z,1003.19
2017-11-06T02:02:23.320Z,1003.19
2017-11-06T02:03:23.287Z,1003.23
2017-11-06T02:04:23.269Z,1003.19
2017-11-06T02:05:23.305Z,1003.21
2017-11-06T02:06:23.250Z,1003.21
2017-11-06T02:07:23.229Z,1003.21
2017-11-06T02:08:23.209Z,1003.23
2017-11-06T02:09:23.194Z,1003.22
2017-11-06T02:10:23.182Z,1003.21
2017-11-06T02:11:23.225Z,1003.24
2017-11-06T02:12:23.142Z,1003.19
2017-11-06T02:13:23.130Z,1003.24
2017-11-06T02:14:23.095Z,1003.26
2017-11-06T02:15:23.084Z,1003.30
2017-11-06T02:16:23.063Z,1003.32
2017-11-06T02:17:23.109Z,1003.35
2017-11-06T02:18:23.023Z,1003.35
2017-11-06T02:19:23.018Z,1003.41
2017-11-06T02:20:23.002Z,1003.37
2017-11-06T02:21:22.972Z,1003.41
2017-11-06T02:22:22.960Z,1003.40
2017-11-06T02:23:23.073Z,1003.40
2017-11-06T02:24:22.923Z,1003.41
2017-11-06T02:25:22.902Z,1003.44
2017-11-06T02:26:22.884Z,1003.41
2017-11-06T02:27:22.876Z,1003.48
2017-11-06T02:28:22.866Z,1003.50
2017-11-06T02:29:22.887Z,1003.52
2017-11-06T02:30:22.868Z,1003.53
2017-11-06T02:31:22.809Z,1003.53
2017-11-06T02:32:22.795Z,1003.52
2017-11-06T02:33:22.763Z,1003.53
2017-11-06T02:34:22.754Z,1003.54
2017-11-06T02:35:22.727Z,1003.52
2017-11-06T02:36:22.788Z,1003.53
2017-11-06T02:37:22.689Z,1003.56
2017-11-06T02:38:22.683Z,1003.53
2017-11-06T02:39:22.656Z,1003.55
2017-11-06T02:40:22.639Z,1003.57
2017-11-06T02:41:22.632Z,1003.57
2017-11-06T02:42:22.670Z,1003.59
2017-11-06T02:43:22.595Z,1003.60
2017-11-06T02:44:22.571Z,1003.55
2017-11-06T02:45:22.558Z,1003.57
2017-11-06T02:46:22.545Z,1003.57
2017-11-06T02:47:22.531Z,1003.62
2017-11-06T02:48:22.642Z,1003.59
2017-11-06T02:49:22.506Z,1003.61
2017-11-06T02:50:22.466Z,1003.65
2017-11-06T02:51:22.455Z,1003.64
2017-11-06T02:52:22.432Z,1003.64
2017-11-06T02:53:22.428Z,1003.63
2017-11-06T02:54:22.629Z,1003.64
2017-11-06T02:55:22.384Z,1003.63
2017-11-06T02:56:22.354Z,1003.67
2017-11-06T02:57:22.349Z,1003.67
2017-11-06T02:58:22.323Z,1003.69
2017-11-06T02:59:22.320Z,1003.66
2017-11-06T03:00:22.614Z,1003.67
2017-11-06T03:01:22.268Z,1003.67
2017-11-06T03:02:22.254Z,1003.67
2017-11-06T03:03:22.244Z,1003.72
2017-11-06T03:04:22.223Z,1003.74
2017-11-06T03:05:22.212Z,1003.72
2017-11-06T03:06:22.370Z,1003.73
2017-11-06T03:07:22.166Z,1003.77
2017-11-06T03:08:22.160Z,1003.79
2017-11-06T03:09:22.138Z,1003.84
2017-11-06T03:10:22.104Z,1003.85
2017-11-06T03:11:22.097Z,1003.84
2017-11-06T03:12:22.149Z,1003.82
2017-11-06T03:13:22.063Z,1003.86
2017-11-06T03:14:22.042Z,1003.85
2017-11-06T03:15:22.030Z,1003.86
2017-11-06T03:16:22.001Z,1003.84
2017-11-06T03:17:21.996Z,1003.83
2017-11-06T03:18:22.037Z,1003.81
2017-11-06T03:19:21.964Z,1003.83
2017-11-06T03:20:21.934Z,1003.89
2017-11-06T03:21:21.912Z,1003.84
2017-11-06T03:22:21.895Z,1003.88
2017-11-06T03:23:21.875Z,1003.87
2017-11-06T03:24:21.909Z,1003.87
2017-11-06T03:25:21.859Z,1003.87
2017-11-06T03:26:21.833Z,1003.93
2017-11-06T03:27:21.805Z,1003.95
2017-11-06T03:28:21.797Z,1003.95
2017-11-06T03:29:21.792Z,1003.99
2017-11-06T03:30:21.838Z,1004.01
2017-11-06T03:31:21.739Z,1004.06
2017-11-06T03:32:21.737Z,1004.09
2017-11-06T03:33:21.697Z,1004.09
2017-11-06T03:34:21.679Z,1004.11
2017-11-06T03:35:21.671Z,1004.09
2017-11-06T03:36:22.037Z,1004.11
2017-11-06T03:37:21.644Z,1004.14
2017-11-06T03:38:21.613Z,1004.19
2017-11-06T03:39:21.608Z,1004.16
2017-11-06T03:40:21.572Z,1004.16
2017-11-06T03:41:21.570Z,1004.22
2017-11-06T03:42:21.896Z,1004.21
2017-11-06T03:43:21.535Z,1004.26
2017-11-06T03:44:21.508Z,1004.28
2017-11-06T03:45:21.483Z,1004.30
2017-11-06T03:46:21.482Z,1004.33
2017-11-06T03:47:21.460Z,1004.30
2017-11-06T03:48:21.504Z,1004.29
2017-11-06T03:49:21.417Z,1004.33
2017-11-06T03:50:21.400Z,1004.38
2017-11-06T03:51:21.388Z,1004.38
2017-11-06T03:52:21.362Z,1004.39
2017-11-06T03:53:21.346Z,1004.43
2017-11-06T03:54:21.532Z,1004.44
2017-11-06T03:55:21.321Z,1004.43
2017-11-06T03:56:21.296Z,1004.43
2017-11-06T03:57:21.287Z,1004.47
2017-11-06T03:58:21.269Z,1004.48
2017-11-06T03:59:21.249Z,1004.49
2017-11-06T04:00:21.279Z,1004.46
2017-11-06T04:01:21.212Z,1004.48
2017-11-06T04:02:21.187Z,1004.52
2017-11-06T04:03:21.173Z,1004.52
2017-11-06T04:04:21.149Z,1004.53
2017-11-06T04:05:21.132Z,1004.54
2017-11-06T04:06:21.263Z,1004.51
2017-11-06T04:07:21.098Z,1004.53
2017-11-06T04:08:21.093Z,1004.59
2017-11-06T04:09:21.069Z,1004.63
2017-11-06T04:10:21.042Z,1004.62
2017-11-06T04:11:21.036Z,1004.61
2017-11-06T04:12:21.435Z,1004.64
2017-11-06T04:13:20.987Z,1004.65
2017-11-06T04:14:20.993Z,1004.63
2017-11-06T04:15:20.952Z,1004.60
2017-11-06T04:16:20.941Z,1004.61
2017-11-06T04:17:20.922Z,1004.66
2017-11-06T04:18:21.043Z,1004.63
2017-11-06T04:19:20.905Z,1004.65
2017-11-06T04:20:20.873Z,1004.66
2017-11-06T04:21:20.845Z,1004.68
2017-11-06T04:22:20.838Z,1004.67
2017-11-06T04:23:20.828Z,1004.67
2017-11-06T04:24:20.849Z,1004.65
2017-11-06T04:25:20.777Z,1004.69
2017-11-06T04:26:20.768Z,1004.69
2017-11-06T04:27:20.768Z,1004.73
2017-11-06T04:28:20.732Z,1004.79
2017-11-06T04:29:20.722Z,1004.79
2017-11-06T04:30:21.045Z,1004.81
2017-11-06T04:31:20.695Z,1004.78
2017-11-06T04:32:20.934Z,1004.83
2017-11-06T04:33:20.649Z,1004.81
2017-11-06T04:34:20.617Z,1004.77
2017-11-06T04:35:20.609Z,1004.80
2017-11-06T04:36:21.095Z,1004.85
2017-11-06T04:37:20.577Z,1004.90
2017-11-06T04:38:20.543Z,1004.95
2017-11-06T04:39:20.530Z,1005.02
2017-11-06T04:40:20.518Z,1005.00
2017-11-06T04:41:20.516Z,1005.02
2017-11-06T04:42:20.556Z,1005.07
2017-11-06T04:43:20.472Z,1005.06
2017-11-06T04:44:20.446Z,1005.02
2017-11-06T04:45:20.416Z,1005.10
2017-11-06T04:46:20.424Z,1005.06
2017-11-06T04:47:20.381Z,1005.08
2017-11-06T04:48:20.415Z,1005.11
2017-11-06T04:49:20.358Z,1005.10
2017-11-06T04:50:20.341Z,1005.18
2017-11-06T04:51:20.311Z,1005.18
2017-11-06T04:52:20.321Z,1005.20
2017-11-06T04:53:20.299Z,1005.23
2017-11-06T04:54:20.411Z,1005.22
2017-11-06T04:55:20.260Z,1005.24
2017-11-06T04:56:20.229Z,1005.22
2017-11-06T04:57:20.229Z,1005.24
2017-11-06T04:58:20.217Z,1005.25
2017-11-06T04:59:20.183Z,1005.24
2017-11-06T05:00:20.588Z,1005.30
2017-11-06T05:01:20.145Z,1005.34
2017-11-06T05:02:20.236Z,1005.40
2017-11-06T05:03:20.113Z,1005.38
2017-11-06T05:04:20.094Z,1005.38
2017-11-06T05:05:20.070Z,1005.41
2017-11-06T05:06:20.206Z,1005.42
2017-11-06T05:07:20.035Z,1005.48
2017-11-06T05:08:20.030Z,1005.47
2017-11-06T05:09:19.997Z,1005.45
2017-11-06T05:10:19.977Z,1005.51
2017-11-06T05:11:19.969Z,1005.49
2017-11-06T05:12:20.031Z,1005.50
2017-11-06T05:13:19.929Z,1005.51
2017-11-06T05:14:19.902Z,1005.50
2017-11-06T05:15:19.915Z,1005.50
2017-11-06T05:16:19.879Z,1005.55
2017-11-06T05:17:19.878Z,1005.52
2017-11-06T05:18:19.906Z,1005.53
2017-11-06T05:19:19.827Z,1005.56
2017-11-06T05:20:19.807Z,1005.58
2017-11-06T05:21:19.777Z,1005.60
2017-11-06T05:22:19.771Z,1005.64
2017-11-06T05:23:19.750Z,1005.65
2017-11-06T05:24:19.892Z,1005.64
2017-11-06T05:25:19.724Z,1005.64
2017-11-06T05:26:19.694Z,1005.66
2017-11-06T05:27:19.672Z,1005.69
2017-11-06T05:28:19.649Z,1005.73
2017-11-06T05:29:19.644Z,1005.74
2017-11-06T05:30:19.793Z,1005.69
2017-11-06T05:31:19.599Z,1005.70
2017-11-06T05:32:19.842Z,1005.68
2017-11-06T05:33:19.603Z,1005.69
2017-11-06T05:34:19.549Z,1005.75
2017-11-06T05:35:19.544Z,1005.75
2017-11-06T05:36:19.580Z,1005.76
2017-11-06T05:37:19.487Z,1005.81
2017-11-06T05:38:19.478Z,1005.80
2017-11-06T05:39:19.473Z,1005.86
2017-11-06T05:40:19.434Z,1005.88
2017-11-06T05:41:19.418Z,1005.87
2017-11-06T05:42:19.551Z,1005.89
2017-11-06T05:43:19.381Z,1005.89
2017-11-06T05:44:19.381Z,1005.91
2017-11-06T05:45:19.357Z,1005.88
2017-11-06T05:46:19.341Z,1005.86
2017-11-06T05:47:19.324Z,1005.89
2017-11-06T05:48:19.336Z,1005.93
2017-11-06T05:49:19.290Z,1005.90
2017-11-06T05:50:19.262Z,1005.94
2017-11-06T05:51:19.253Z,1005.95
2017-11-06T05:52:19.268Z,1005.97
2017-11-06T05:53:19.227Z,1005.99
2017-11-06T05:54:19.181Z,1005.99
2017-11-06T05:55:19.169Z,1006.03
2017-11-06T05:56:19.153Z,1006.02
2017-11-06T05:57:19.213Z,1006.07
2017-11-06T05:58:19.126Z,1006.04
2017-11-06T05:59:19.126Z,1006.05
2017-11-06T06:00:19.099Z,1006.05
2017-11-06T06:01:19.064Z,1006.11
2017-11-06T06:02:20.064Z,1006.10
2017-11-06T06:03:19.100Z,1006.12
2017-11-06T06:04:19.023Z,1006.11
2017-11-06T06:05:19.012Z,1006.09
2017-11-06T06:06:18.985Z,1006.10
2017-11-06T06:07:18.974Z,1006.06
2017-11-06T06:08:18.969Z,1006.11
2017-11-06T06:09:19.063Z,1006.08
2017-11-06T06:10:18.916Z,1006.06
2017-11-06T06:11:18.897Z,1006.09
2017-11-06T06:12:18.863Z,1006.09
2017-11-06T06:13:18.859Z,1006.10
2017-11-06T06:14:18.841Z,1006.13
2017-11-06T06:15:18.961Z,1006.14
2017-11-06T06:16:18.797Z,1006.16
2017-11-06T06:17:18.781Z,1006.18
2017-11-06T06:18:18.755Z,1006.25
2017-11-06T06:19:18.732Z,1006.32
2017-11-06T06:20:18.725Z,1006.32
2017-11-06T06:21:18.782Z,1006.27
2017-11-06T06:22:18.691Z,1006.34
2017-11-06T06:23:18.672Z,1006.36
2017-11-06T06:24:18.660Z,1006.37
2017-11-06T06:25:18.624Z,1006.41
2017-11-06T06:26:19.059Z,1006.42
2017-11-06T06:27:18.587Z,1006.44
2017-11-06T06:28:18.587Z,1006.45
2017-11-06T06:29:18.566Z,1006.46
2017-11-06T06:30:18.544Z,1006.47
2017-11-06T06:31:18.527Z,1006.47
2017-11-06T06:32:18.565Z,1006.48
2017-11-06T06:33:18.505Z,1006.46
2017-11-06T06:34:18.468Z,1006.49
2017-11-06T06:35:18.459Z,1006.49
2017-11-06T06:36:18.438Z,1006.53
2017-11-06T06:37:18.422Z,1006.57
2017-11-06T06:38:18.430Z,1006.58
2017-11-06T06:39:18.369Z,1006.57
2017-11-06T06:40:18.368Z,1006.54
2017-11-06T06:41:18.343Z,1006.55
2017-11-06T06:42:18.354Z,1006.61
2017-11-06T06:43:18.309Z,1006.63
2017-11-06T06:44:18.292Z,1006.62
2017-11-06T06:45:18.281Z,1006.63
2017-11-06T06:46:18.254Z,1006.65
2017-11-06T06:47:18.300Z,1006.64
2017-11-06T06:48:18.226Z,1006.65
2017-11-06T06:49:18.216Z,1006.67
2017-11-06T06:50:18.179Z,1006.69
2017-11-06T06:51:18.155Z,1006.74
2017-11-06T06:52:18.152Z,1006.74
2017-11-06T06:53:18.194Z,1006.72
2017-11-06T06:54:18.120Z,1006.74
2017-11-06T06:55:18.097Z,1006.80
2017-11-06T06:56:18.078Z,1006.77
2017-11-06T06:57:18.045Z,1006.77
2017-11-06T06:58:18.040Z,1006.77
2017-11-06T06:59:18.078Z,1006.86
2017-11-06T07:00:17.988Z,1006.83
2017-11-06T07:01:17.985Z,1006.83
2017-11-06T07:02:17.958Z,1006.87
2017-11-06T07:03:17.949Z,1006.88
2017-11-06T07:04:17.931Z,1006.93
2017-11-06T07:05:17.959Z,1006.94
2017-11-06T07:06:17.906Z,1006.95
2017-11-06T07:07:17.876Z,1006.96
2017-11-06T07:08:17.859Z,1006.98
2017-11-06T07:09:17.839Z,1006.93
2017-11-06T07:10:17.826Z,1006.97
2017-11-06T07:11:18.222Z,1007.01
2017-11-06T07:12:17.786Z,1007.04
2017-11-06T07:13:17.755Z,1007.05
2017-11-06T07:14:17.736Z,1007.07
2017-11-06T07:15:17.723Z,1007.07
2017-11-06T07:16:17.712Z,1007.10
2017-11-06T07:17:17.727Z,1007.12
2017-11-06T07:18:17.684Z,1007.14
2017-11-06T07:19:17.659Z,1007.16
2017-11-06T07:20:17.638Z,1007.17
2017-11-06T07:21:17.616Z,1007.17
2017-11-06T07:22:17.742Z,1007.22
2017-11-06T07:23:17.590Z,1007.27
2017-11-06T07:24:17.556Z,1007.27
2017-11-06T07:25:17.555Z,1007.28
2017-11-06T07:26:17.533Z,1007.29
2017-11-06T07:27:17.511Z,1007.32
2017-11-06T07:28:17.547Z,1007.36
2017-11-06T07:29:17.478Z,1007.29
2017-11-06T07:30:17.498Z,1007.30
2017-11-06T07:31:17.443Z,1007.30
2017-11-06T07:32:17.415Z,1007.36
2017-11-06T07:33:17.400Z,1007.39
2017-11-06T07:34:17.553Z,1007.41
2017-11-06T07:35:17.359Z,1007.43
2017-11-06T07:36:17.340Z,1007.47
2017-11-06T07:37:17.333Z,1007.48
2017-11-06T07:38:17.307Z,1007.51
2017-11-06T07:39:17.297Z,1007.53
2017-11-06T07:40:17.339Z,1007.52
2017-11-06T07:41:17.252Z,1007.56
2017-11-06T07:42:17.240Z,1007.60
2017-11-06T07:43:17.220Z,1007.63
2017-11-06T07:44:17.201Z,1007.62
2017-11-06T07:45:17.180Z,1007.68
2017-11-06T07:46:17.310Z,1007.67
2017-11-06T07:47:17.151Z,1007.69
2017-11-06T07:48:17.145Z,1007.70
2017-11-06T07:49:17.112Z,1007.74
2017-11-06T07:50:17.095Z,1007.70
2017-11-06T07:51:17.088Z,1007.72
2017-11-06T07:52:17.125Z,1007.79
2017-11-06T07:53:17.049Z,1007.81
2017-11-06T07:54:17.051Z,1007.80
2017-11-06T07:55:17.022Z,1007.79
2017-11-06T07:56:16.997Z,1007.82
2017-11-06T07:57:16.982Z,1007.86
2017-11-06T07:58:16.995Z,1007.87
2017-11-06T07:59:16.948Z,1007.89
2017-11-06T08:00:16.932Z,1007.92
2017-11-06T08:01:16.903Z,1007.91
2017-11-06T08:02:16.933Z,1007.89
2017-11-06T08:03:16.867Z,1007.86
2017-11-06T08:04:16.858Z,1007.92
2017-11-06T08:05:16.838Z,1007.95
2017-11-06T08:06:16.830Z,1007.96
2017-11-06T08:07:16.801Z,1008.00
2017-11-06T08:08:16.913Z,1008.03
2017-11-06T08:09:16.771Z,1008.06
2017-11-06T08:10:16.745Z,1008.08
2017-11-06T08:11:16.748Z,1008.08
2017-11-06T08:12:16.713Z,1008.09
2017-11-06T08:13:16.702Z,1008.08
2017-11-06T08:14:17.072Z,1008.10
2017-11-06T08:15:16.658Z,1008.08
2017-11-06T08:16:16.648Z,1008.09
2017-11-06T08:17:16.619Z,1008.11
2017-11-06T08:18:16.615Z,1008.15
2017-11-06T08:19:16.584Z,1008.11
2017-11-06T08:20:16.729Z,1008.15
2017-11-06T08:21:16.559Z,1008.17
2017-11-06T08:22:16.546Z,1008.14
2017-11-06T08:23:16.522Z,1008.07
2017-11-06T08:24:16.510Z,1008.18
2017-11-06T08:25:16.485Z,1008.12
2017-11-06T08:26:16.608Z,1008.22
2017-11-06T08:27:16.438Z,1008.21
2017-11-06T08:28:16.426Z,1008.21
2017-11-06T08:29:16.414Z,1008.20
2017-11-06T08:30:16.387Z,1008.24
2017-11-06T08:31:16.388Z,1008.23
2017-11-06T08:32:16.516Z,1008.21
2017-11-06T08:33:16.335Z,1008.21
2017-11-06T08:34:16.345Z,1008.20
2017-11-06T08:35:16.320Z,1008.27
2017-11-06T08:36:16.295Z,1008.30
2017-11-06T08:37:16.274Z,1008.34
2017-11-06T08:38:16.300Z,1008.38
2017-11-06T08:39:16.227Z,1008.41
2017-11-06T08:40:16.218Z,1008.42
2017-11-06T08:41:16.195Z,1008.42
2017-11-06T08:42:16.188Z,1008.43
2017-11-06T08:43:16.163Z,1008.46
2017-11-06T08:44:16.506Z,1008.50
2017-11-06T08:45:16.128Z,1008.49
2017-11-06T08:46:16.106Z,1008.50
2017-11-06T08:47:16.094Z,1008.48
2017-11-06T08:48:16.092Z,1008.49
2017-11-06T08:49:16.064Z,1008.46
2017-11-06T08:50:16.100Z,1008.48
2017-11-06T08:51:16.023Z,1008.50
2017-11-06T08:52:16.013Z,1008.50
2017-11-06T08:53:15.997Z,1008.51
2017-11-06T08:54:15.963Z,1008.54
2017-11-06T08:55:15.967Z,1008.55
2017-11-06T08:56:15.998Z,1008.55
2017-11-06T08:57:15.913Z,1008.59
2017-11-06T08:58:15.907Z,1008.60
2017-11-06T08:59:15.894Z,1008.60
2017-11-06T09:00:15.858Z,1008.64
2017-11-06T09:01:15.843Z,1008.62
2017-11-06T09:02:15.899Z,1008.64
2017-11-06T09:03:15.825Z,1008.57
2017-11-06T09:04:15.815Z,1008.61
2017-11-06T09:05:15.790Z,1008.60
2017-11-06T09:06:15.765Z,1008.63
2017-11-06T09:07:15.755Z,1008.64
2017-11-06T09:08:16.093Z,1008.64
2017-11-06T09:09:15.710Z,1008.62
2017-11-06T09:10:15.699Z,1008.63
2017-11-06T09:11:15.717Z,1008.61
2017-11-06T09:12:15.667Z,1008.69
2017-11-06T09:13:15.637Z,1008.71
2017-11-06T09:14:15.682Z,1008.70
2017-11-06T09:15:15.605Z,1008.75
2017-11-06T09:16:15.603Z,1008.75
2017-11-06T09:17:15.577Z,1008.81
2017-11-06T09:18:15.559Z,1008.85
2017-11-06T09:19:15.545Z,1008.87
2017-11-06T09:20:15.963Z,1008.90
2017-11-06T09:21:15.509Z,1008.91
2017-11-06T09:22:15.490Z,1008.86
2017-11-06T09:23:15.483Z,1008.90
2017-11-06T09:24:15.445Z,1008.90
2017-11-06T09:25:15.429Z,1008.85
2017-11-06T09:26:15.574Z,1008.85
2017-11-06T09:27:15.391Z,1008.85
2017-11-06T09:28:15.376Z,1008.85
2017-11-06T09:29:15.381Z,1008.83
2017-11-06T09:30:15.352Z,1008.85
2017-11-06T09:31:15.323Z,1008.86
2017-11-06T09:32:15.463Z,1008.89
2017-11-06T09:33:15.289Z,1008.91
2017-11-06T09:34:15.289Z,1008.93
2017-11-06T09:35:15.265Z,1008.93
2017-11-06T09:36:15.249Z,1008.96
2017-11-06T09:37:15.233Z,1008.96
2017-11-06T09:38:15.271Z,1008.99
2017-11-06T09:39:15.183Z,1009.05
2017-11-06T09:40:15.165Z,1009.06
2017-11-06T09:41:15.164Z,1009.10
2017-11-06T09:42:15.136Z,1009.10
2017-11-06T09:43:15.127Z,1009.07
2017-11-06T09:44:15.171Z,1009.05
2017-11-06T09:45:15.120Z,1009.09
2017-11-06T09:46:15.101Z,1009.06
2017-11-06T09:47:15.069Z,1009.03
2017-11-06T09:48:15.054Z,1009.03
2017-11-06T09:49:15.042Z,1009.07
2017-11-06T09:50:15.060Z,1009.08
2017-11-06T09:51:15.774Z,1009.05
2017-11-06T09:52:15.677Z,1009.07
2017-11-06T09:53:14.947Z,1009.05
2017-11-06T09:54:14.934Z,1009.07
2017-11-06T09:55:14.918Z,1009.11
2017-11-06T09:56:15.095Z,1009.18
2017-11-06T09:57:14.881Z,1009.16
2017-11-06T09:58:14.889Z,1009.19
2017-11-06T09:59:14.867Z,1009.18
2017-11-06T10:00:14.849Z,1009.24
2017-11-06T10:01:14.831Z,1009.26
2017-11-06T10:02:15.121Z,1009.26
2017-11-06T10:03:14.810Z,1009.27
2017-11-06T10:04:14.832Z,1009.27
2017-11-06T10:05:14.772Z,1009.24
2017-11-06T10:06:14.745Z,1009.27
2017-11-06T10:07:14.724Z,1009.27
2017-11-06T10:08:14.772Z,1009.21
2017-11-06T10:09:14.691Z,1009.25
2017-11-06T10:10:14.708Z,1009.20
2017-11-06T10:11:14.662Z,1009.20
2017-11-06T10:12:14.637Z,1009.27
2017-11-06T10:13:14.703Z,1009.21
2017-11-06T10:14:14.687Z,1009.25
2017-11-06T10:15:14.586Z,1009.21
2017-11-06T10:16:14.642Z,1009.18
2017-11-06T10:17:14.562Z,1009.19
2017-11-06T10:18:14.611Z,1009.18
2017-11-06T10:19:14.551Z,1009.31
2017-11-06T10:20:14.655Z,1009.36
2017-11-06T10:21:15.185Z,1009.30
2017-11-06T10:22:14.483Z,1009.36
2017-11-06T10:23:14.513Z,1009.37
2017-11-06T10:24:14.465Z,1009.41
2017-11-06T10:25:14.409Z,1009.41
2017-11-06T10:26:15.030Z,1009.36
2017-11-06T10:27:14.418Z,1009.25
2017-11-06T10:28:14.398Z,1009.32
2017-11-06T10:29:14.361Z,1009.38
2017-11-06T10:30:14.403Z,1009.43
2017-11-06T10:31:14.332Z,1009.35
2017-11-06T10:32:14.630Z,1009.34
2017-11-06T10:33:14.300Z,1009.31
2017-11-06T10:34:14.275Z,1009.30
2017-11-06T10:35:14.258Z,1009.40
2017-11-06T10:36:14.254Z,1009.45
2017-11-06T10:37:14.245Z,1009.38
2017-11-06T10:38:14.358Z,1009.38
2017-11-06T10:39:14.220Z,1009.42
2017-11-06T10:40:14.172Z,1009.45
2017-11-06T10:41:14.177Z,1009.41
2017-11-06T10:42:14.142Z,1009.45
2017-11-06T10:43:14.144Z,1009.44
2017-11-06T10:44:14.277Z,1009.49
2017-11-06T10:45:15.050Z,1009.50
2017-11-06T10:46:15.004Z,1009.51
2017-11-06T10:47:14.082Z,1009.52
2017-11-06T10:48:14.046Z,1009.49
2017-11-06T10:49:14.030Z,1009.47
2017-11-06T10:50:14.107Z,1009.50
2017-11-06T10:51:14.021Z,1009.44
2017-11-06T10:52:13.977Z,1009.43
2017-11-06T10:53:13.951Z,1009.51
2017-11-06T10:54:13.939Z,1009.57
2017-11-06T10:55:13.961Z,1009.52
2017-11-06T10:56:14.063Z,1009.54
2017-11-06T10:57:13.886Z,1009.51
2017-11-06T10:58:13.874Z,1009.53
2017-11-06T10:59:13.851Z,1009.49
2017-11-06T11:00:13.856Z,1009.56
2017-11-06T11:01:13.849Z,1009.52
2017-11-06T11:02:13.861Z,1009.53
2017-11-06T11:03:13.788Z,1009.51
2017-11-06T11:04:13.783Z,1009.48
2017-11-06T11:05:13.850Z,1009.46
2017-11-06T11:06:13.808Z,1009.45
2017-11-06T11:07:13.767Z,1009.47
2017-11-06T11:08:13.899Z,1009.48
2017-11-06T11:09:13.714Z,1009.47
2017-11-06T11:10:13.700Z,1009.46
2017-11-06T11:11:13.690Z,1009.42
2017-11-06T11:12:13.667Z,1009.42
2017-11-06T11:13:13.629Z,1009.43
2017-11-06T11:14:13.645Z,1009.42
2017-11-06T11:15:13.633Z,1009.39
2017-11-06T11:16:13.591Z,1009.41
2017-11-06T11:17:13.658Z,1009.40
2017-11-06T11:18:13.576Z,1009.43
2017-11-06T11:19:13.619Z,1009.42
2017-11-06T11:20:13.531Z,1009.44
2017-11-06T11:21:13.508Z,1009.45
2017-11-06T11:22:13.519Z,1009.47
2017-11-06T11:23:13.589Z,1009.44
2017-11-06T11:24:13.466Z,1009.41
2017-11-06T11:25:13.447Z,1009.42
2017-11-06T11:26:13.440Z,1009.43
2017-11-06T11:27:13.428Z,1009.45
2017-11-06T11:28:13.388Z,1009.46
2017-11-06T11:29:13.457Z,1009.48
2017-11-06T11:30:13.382Z,1009.51
2017-11-06T11:31:13.373Z,1009.48
2017-11-06T11:32:13.345Z,1009.50
2017-11-06T11:33:13.320Z,1009.51
2017-11-06T11:34:13.308Z,1009.52
2017-11-06T11:35:34.468Z,1009.52
2017-11-06T11:36:13.287Z,1009.57
2017-11-06T11:37:13.273Z,1009.58
2017-11-06T11:38:13.250Z,1009.56
2017-11-06T11:39:13.219Z,1009.52
2017-11-06T11:40:13.219Z,1009.52
2017-11-06T11:41:13.235Z,1009.49
2017-11-06T11:42:13.181Z,1009.50
2017-11-06T11:43:13.171Z,1009.49
2017-11-06T11:44:13.141Z,1009.48
2017-11-06T11:45:13.132Z,1009.45
2017-11-06T11:46:13.175Z,1009.50
2017-11-06T11:47:13.127Z,1009.47
2017-11-06T11:48:13.080Z,1009.47
2017-11-06T11:49:13.113Z,1009.53
2017-11-06T11:50:13.054Z,1009.54
2017-11-06T11:51:13.053Z,1009.54
2017-11-06T11:52:13.666Z,1009.60
2017-11-06T11:53:13.015Z,1009.65
2017-11-06T11:54:13.000Z,1009.62
2017-11-06T11:55:12.972Z,1009.61
2017-11-06T11:56:12.960Z,1009.56
2017-11-06T11:57:13.514Z,1009.55
2017-11-06T11:58:13.073Z,1009.51
2017-11-06T11:59:12.911Z,1009.56
2017-11-06T12:00:12.900Z,1009.50
2017-11-06T12:01:12.897Z,1009.52
2017-11-06T12:02:12.869Z,1009.55
2017-11-06T12:03:12.850Z,1009.62
2017-11-06T12:04:12.895Z,1009.69
2017-11-06T12:05:12.840Z,1009.58